Saint Paul, Oregon
Current Conditions -  °F | °C
As of 5:53 AM on Monday 22 Dec 2014 (Local Time) from KMMV Reporting Station
Overcast Overcast  
Wind Chill: 50°   Ceiling: 4600
Heat Index: 50°   Visibility: 10mi
Dew Point: 48°   Wind: 6mph
Humidity: 93%   Direction: 220°SW
Pressure: 30.31"   Gusts: NA
Location:  45.21°N, 122.98°W
Report Text: KMMV 221353Z AUTO 22005KT 10SM BKN046 OVC070 10/09 A3031 RMK AO2 SLP264 T01000089 $
Loading
Personal Weather Stations






























Interactive Weather Map New forecast layout! Learn more

10-Day Weather Forecast

Advertisements
Track Severe Weather on mobile